Time;durP1;ratioP1;P1;durP2;ratioP2;P2;SDS_P1;SDS_P2;PMS_P1;PMS_P2;Temp;Humidity;BMP_temperature;BMP_pressure;BME280_temperature;BME280_humidity;BME280_pressure;Samples;Min_cycle;Max_cycle;Signal;HPM_P1;HPM_P2
2021/03/29 00:02:24;;;;;;;16.52;9.23;;;;;;;11.97;65.28;102194.03;4996628;28;20588;-86
2021/03/29 00:05:31;;;;;;;13.95;8.45;;;;;;;11.92;65.02;102196.16;4997921;28;20065;-85
2021/03/29 00:08:38;;;;;;;12.65;7.75;;;;;;;11.86;65.20;102193.84;4996229;28;20492;-85
2021/03/29 00:11:43;;;;;;;12.38;8.20;;;;;;;11.89;65.18;102190.94;4996261;28;20060;-83
2021/03/29 00:14:48;;;;;;;11.60;8.30;;;;;;;11.89;64.87;102190.09;4997280;28;20203;-90
2021/03/29 00:17:52;;;;;;;11.80;8.35;;;;;;;11.79;64.90;102187.13;4997205;28;20057;-78
2021/03/29 00:21:02;;;;;;;12.45;8.27;;;;;;;11.86;65.13;102203.72;4996979;28;20053;-83
2021/03/29 00:24:07;;;;;;;11.07;8.57;;;;;;;11.78;65.27;102192.59;4996844;28;20122;-78
2021/03/29 00:27:11;;;;;;;10.80;8.23;;;;;;;11.74;65.50;102195.50;4995735;28;20049;-77
2021/03/29 00:30:23;;;;;;;11.82;8.40;;;;;;;11.74;65.23;102194.63;4996694;28;20065;-83
2021/03/29 00:33:28;;;;;;;12.35;8.63;;;;;;;11.64;65.54;102193.44;4996626;28;20049;-81
2021/03/29 00:36:34;;;;;;;13.30;8.48;;;;;;;11.67;65.39;102204.00;4996322;28;20057;-89
2021/03/29 00:39:39;;;;;;;14.43;8.75;;;;;;;11.63;65.46;102203.31;4996291;28;20054;-85
2021/03/29 00:42:45;;;;;;;13.35;8.50;;;;;;;11.61;65.43;102204.38;4996449;28;20053;-81
2021/03/29 00:45:52;;;;;;;13.57;9.00;;;;;;;11.51;65.57;102206.78;4996871;28;20082;-88
2021/03/29 00:48:57;;;;;;;10.93;8.93;;;;;;;11.49;65.98;102207.84;4996999;28;20394;-86
2021/03/29 00:52:02;;;;;;;11.85;9.18;;;;;;;11.51;65.69;102213.97;4996349;28;20053;-85
2021/03/29 00:55:09;;;;;;;12.32;9.43;;;;;;;11.48;65.85;102211.50;4996555;28;20489;-84
2021/03/29 00:58:15;;;;;;;12.45;8.50;;;;;;;11.42;66.27;102215.44;4996245;28;20057;-82
2021/03/29 01:01:23;;;;;;;13.30;9.10;;;;;;;11.40;66.41;102217.34;4996196;28;20058;-90
2021/03/29 01:04:28;;;;;;;12.07;8.65;;;;;;;11.27;66.27;102205.59;4995366;28;20053;-87
2021/03/29 01:07:33;;;;;;;16.38;9.13;;;;;;;11.26;66.43;102211.09;4996057;28;20057;-88
2021/03/29 01:10:36;;;;;;;12.48;9.10;;;;;;;11.23;66.36;102205.91;4995286;28;20493;-86
2021/03/29 01:13:51;;;;;;;12.85;9.45;;;;;;;11.20;66.53;102200.69;4996073;28;20058;-90
2021/03/29 01:17:19;;;;;;;12.38;9.02;;;;;;;11.18;66.56;102210.69;4995478;28;20053;-83
2021/03/29 01:20:35;;;;;;;12.20;8.98;;;;;;;11.16;66.54;102218.00;5014608;28;20405;-81
2021/03/29 01:23:44;;;;;;;13.05;8.35;;;;;;;11.12;66.37;102211.91;4995968;28;20057;-85
2021/03/29 01:26:50;;;;;;;10.90;9.07;;;;;;;11.05;66.51;102211.44;4996118;28;20061;-85
2021/03/29 01:29:57;;;;;;;8.82;7.78;;;;;;;11.03;67.14;102213.34;4995695;28;20053;-78
2021/03/29 01:33:02;;;;;;;10.57;8.60;;;;;;;11.01;66.79;102209.03;4995793;28;20058;-78
2021/03/29 01:36:08;;;;;;;11.70;8.93;;;;;;;11.03;66.99;102212.47;4995179;28;20053;-81
2021/03/29 01:39:14;;;;;;;12.65;9.23;;;;;;;10.98;67.33;102210.06;4983416;28;20050;-87
2021/03/29 01:42:21;;;;;;;16.83;8.90;;;;;;;10.96;67.00;102206.59;4995390;28;20060;-88
2021/03/29 01:45:26;;;;;;;12.48;9.20;;;;;;;10.97;66.91;102202.97;4995220;28;20057;-84
2021/03/29 01:48:30;;;;;;;12.60;9.32;;;;;;;10.94;67.20;102203.13;4994560;28;20053;-83
2021/03/29 01:51:35;;;;;;;11.05;9.50;;;;;;;10.92;67.42;102204.19;4995494;28;20057;-84
2021/03/29 01:54:41;;;;;;;9.93;8.48;;;;;;;10.92;67.45;102206.88;4995114;28;20057;-79
2021/03/29 01:57:45;;;;;;;12.35;8.70;;;;;;;10.91;67.62;102211.38;4994918;28;20057;-87
2021/03/29 02:00:56;;;;;;;12.75;9.60;;;;;;;10.97;67.36;102227.16;4995178;28;20062;-88
2021/03/29 02:04:02;;;;;;;14.82;10.00;;;;;;;10.94;67.81;102219.25;4996520;28;20053;-77
2021/03/29 02:07:07;;;;;;;10.32;8.70;;;;;;;10.94;67.76;102221.06;4994967;28;20042;-86
2021/03/29 02:10:17;;;;;;;13.77;9.55;;;;;;;10.94;67.86;102229.13;4994985;28;20047;-86
2021/03/29 02:13:26;;;;;;;10.70;9.07;;;;;;;10.87;68.25;102217.91;4994946;28;20053;-89
2021/03/29 02:16:32;;;;;;;11.82;9.20;;;;;;;10.83;68.66;102223.53;4994527;28;20065;-85
2021/03/29 02:19:37;;;;;;;12.93;10.40;;;;;;;10.70;69.37;102220.72;4995104;28;20053;-85
2021/03/29 02:22:52;;;;;;;14.10;10.23;;;;;;;10.70;68.83;102228.78;4994736;28;20374;-84
2021/03/29 02:25:58;;;;;;;12.20;9.85;;;;;;;10.69;69.01;102218.13;4994490;28;20042;-84
2021/03/29 02:29:02;;;;;;;13.27;9.85;;;;;;;10.69;68.93;102212.75;4997732;28;20065;-86
2021/03/29 02:32:07;;;;;;;11.15;9.50;;;;;;;10.66;69.39;102216.50;4996267;28;20057;-83
2021/03/29 02:35:12;;;;;;;11.45;9.68;;;;;;;10.60;69.62;102218.66;4993906;28;20057;-83
2021/03/29 02:38:18;;;;;;;10.65;9.32;;;;;;;10.57;69.73;102214.31;4993903;28;20390;-85
2021/03/29 02:41:25;;;;;;;12.68;10.27;;;;;;;10.58;69.51;102224.13;4994297;28;20053;-85
2021/03/29 02:44:31;;;;;;;13.60;9.88;;;;;;;10.51;69.55;102219.19;4993315;28;20054;-79
2021/03/29 02:47:39;;;;;;;13.27;9.88;;;;;;;10.46;70.35;102216.78;4993118;28;20402;-82
2021/03/29 02:50:46;;;;;;;15.45;9.95;;;;;;;10.53;70.05;102226.19;4994374;28;20049;-79
2021/03/29 02:53:56;;;;;;;17.98;9.95;;;;;;;10.47;69.96;102218.50;4993597;28;20165;-74
2021/03/29 02:57:01;;;;;;;12.52;10.75;;;;;;;10.45;70.58;102226.66;4993828;28;20394;-79
2021/03/29 03:00:12;;;;;;;17.23;10.55;;;;;;;10.40;70.68;102217.97;4994539;28;20046;-85
2021/03/29 03:03:17;;;;;;;15.05;10.27;;;;;;;10.44;70.83;102224.91;4994262;28;20051;-78
2021/03/29 03:06:27;;;;;;;15.60;10.98;;;;;;;10.43;70.68;102215.13;4993294;28;20046;-78
2021/03/29 03:09:33;;;;;;;17.00;10.70;;;;;;;10.44;70.59;102226.75;4993994;28;20046;-78
2021/03/29 03:12:43;;;;;;;12.95;11.20;;;;;;;10.36;70.97;102223.63;4994544;28;20042;-80
2021/03/29 03:15:48;;;;;;;15.85;11.23;;;;;;;10.25;71.57;102217.97;5004708;28;20046;-81
2021/03/29 03:18:52;;;;;;;16.15;11.45;;;;;;;10.24;71.93;102224.31;5001309;28;20046;-90
2021/03/29 03:21:56;;;;;;;16.42;12.00;;;;;;;10.21;71.52;102214.63;5001317;28;20050;-74
2021/03/29 03:25:01;;;;;;;14.10;10.48;;;;;;;10.18;71.47;102208.56;5013907;28;20045;-89
2021/03/29 03:28:14;;;;;;;14.43;11.43;;;;;;;10.18;71.13;102214.78;5012912;28;20038;-84
2021/03/29 03:31:19;;;;;;;12.85;11.10;;;;;;;10.11;71.02;102199.97;5013179;28;20034;-82
2021/03/29 03:34:24;;;;;;;14.15;10.30;;;;;;;10.22;71.30;102204.75;5013669;28;20049;-84
2021/03/29 03:37:28;;;;;;;14.23;10.73;;;;;;;10.22;71.38;102212.81;5013115;28;20042;-80
2021/03/29 03:40:34;;;;;;;13.10;10.52;;;;;;;10.12;70.91;102209.75;5011738;28;20401;-85
2021/03/29 03:43:45;;;;;;;14.00;10.13;;;;;;;10.13;70.76;102219.56;5013769;28;20041;-84
2021/03/29 03:46:51;;;;;;;15.75;10.90;;;;;;;10.08;71.06;102210.00;5017276;28;20583;-90
2021/03/29 03:49:57;;;;;;;15.27;10.48;;;;;;;10.07;70.92;102219.88;5017577;28;20497;-85
2021/03/29 03:53:02;;;;;;;13.90;11.63;;;;;;;10.05;70.91;102220.91;5016206;28;20042;-88
2021/03/29 03:56:08;;;;;;;14.93;11.20;;;;;;;9.98;71.08;102215.00;5016818;28;20405;-83
2021/03/29 03:59:12;;;;;;;16.25;11.23;;;;;;;9.99;71.05;102218.56;5016045;28;20057;-85
2021/03/29 04:02:17;;;;;;;15.68;11.00;;;;;;;9.92;71.19;102210.00;5016756;28;20053;-84
2021/03/29 04:05:22;;;;;;;16.48;10.43;;;;;;;9.97;71.12;102213.28;5016784;28;20068;-84
2021/03/29 04:08:26;;;;;;;13.77;10.90;;;;;;;9.93;71.04;102209.03;5016399;28;20053;-83
2021/03/29 04:11:31;;;;;;;16.10;11.13;;;;;;;9.90;70.75;102211.88;5016945;28;20048;-82
2021/03/29 04:14:35;;;;;;;21.00;11.15;;;;;;;9.82;71.19;102216.81;5016547;28;20053;-85
2021/03/29 04:17:40;;;;;;;17.60;11.57;;;;;;;9.77;71.08;102211.72;5015615;28;20060;-85
2021/03/29 04:20:44;;;;;;;16.90;11.55;;;;;;;9.78;71.51;102213.44;5015377;28;20069;-85
2021/03/29 04:23:49;;;;;;;17.58;11.32;;;;;;;9.79;71.96;102215.16;5015933;28;20057;-88
2021/03/29 04:26:53;;;;;;;26.88;11.77;;;;;;;9.79;71.89;102219.66;5016412;28;20160;-88
2021/03/29 04:29:58;;;;;;;21.25;12.15;;;;;;;9.68;72.02;102209.50;5016718;28;20402;-83
2021/03/29 04:33:02;;;;;;;20.25;12.15;;;;;;;9.67;72.24;102223.03;5016671;28;20390;-85
2021/03/29 04:36:07;;;;;;;19.98;12.70;;;;;;;9.60;72.58;102214.41;5015940;28;20044;-85
2021/03/29 04:39:11;;;;;;;16.40;12.90;;;;;;;9.58;72.55;102213.63;5015282;28;20180;-82
2021/03/29 04:42:15;;;;;;;17.65;12.30;;;;;;;9.52;72.51;102229.19;5014835;28;20390;-84
2021/03/29 04:45:21;;;;;;;20.17;11.80;;;;;;;9.50;72.60;102228.44;5014873;28;20056;-86
2021/03/29 04:48:25;;;;;;;16.98;11.75;;;;;;;9.50;72.30;102228.44;5014936;28;20053;-85
2021/03/29 04:51:30;;;;;;;20.02;12.23;;;;;;;9.34;72.69;102220.31;5015694;28;20504;-85
2021/03/29 04:54:34;;;;;;;18.52;12.68;;;;;;;9.34;72.76;102223.00;5015826;28;20069;-84
2021/03/29 04:57:39;;;;;;;26.13;11.73;;;;;;;9.24;73.14;102224.44;5016028;28;20056;-89
2021/03/29 05:00:43;;;;;;;16.88;11.52;;;;;;;9.28;73.25;102228.69;5018050;28;20057;-84
2021/03/29 05:03:48;;;;;;;18.25;12.68;;;;;;;9.25;73.18;102231.53;5014545;28;20061;-83
2021/03/29 05:06:52;;;;;;;18.35;11.60;;;;;;;9.25;72.91;102226.19;5014519;28;20061;-84
2021/03/29 05:09:56;;;;;;;16.92;10.63;;;;;;;9.22;73.15;102226.31;5015375;28;20049;-85
2021/03/29 05:13:01;;;;;;;72.68;53.08;;;;;;;9.23;72.93;102230.75;5015336;28;20466;-81
2021/03/29 05:16:05;;;;;;;32.67;19.83;;;;;;;9.30;72.60;102223.25;5015419;28;20049;-84
2021/03/29 05:19:10;;;;;;;20.65;11.98;;;;;;;9.34;72.43;102228.34;5013505;28;20516;-84
2021/03/29 05:22:15;;;;;;;20.80;11.65;;;;;;;9.38;72.29;102221.88;5014970;28;20048;-82
2021/03/29 05:25:19;;;;;;;24.02;10.57;;;;;;;9.51;71.97;102231.00;5015293;28;20538;-85
2021/03/29 05:28:23;;;;;;;19.77;10.07;;;;;;;9.60;71.67;102235.03;5015424;28;20049;-85
2021/03/29 05:31:27;;;;;;;25.27;11.35;;;;;;;9.69;71.03;102235.38;5015242;28;20053;-80
2021/03/29 05:34:32;;;;;;;17.50;10.77;;;;;;;9.81;70.95;102234.72;5015045;28;20049;-83
2021/03/29 05:37:36;;;;;;;22.15;11.10;;;;;;;9.96;70.74;102238.38;5014492;28;20040;-83
2021/03/29 05:40:41;;;;;;;21.73;10.52;;;;;;;10.20;69.70;102236.16;5014964;28;20052;-84
2021/03/29 05:43:45;;;;;;;17.20;11.05;;;;;;;10.27;69.45;102242.94;5014675;28;20050;-84
2021/03/29 05:46:50;;;;;;;30.70;11.45;;;;;;;10.32;68.93;102244.38;5014587;28;20046;-84
2021/03/29 05:49:54;;;;;;;26.05;13.02;;;;;;;10.40;68.87;102238.59;5014921;28;20474;-89
2021/03/29 05:52:58;;;;;;;22.60;12.80;;;;;;;10.54;68.12;102240.50;5015043;28;20470;-87
2021/03/29 05:56:05;;;;;;;34.97;12.90;;;;;;;10.65;68.00;102244.28;5014262;28;20046;-85
2021/03/29 05:59:12;;;;;;;24.90;11.40;;;;;;;10.89;66.95;102247.34;5014623;28;20045;-86
2021/03/29 06:02:29;;;;;;;22.13;10.68;;;;;;;11.05;66.54;102250.88;5014247;28;20046;-85
2021/03/29 06:05:33;;;;;;;18.48;10.20;;;;;;;11.20;65.67;102249.97;5013923;28;20041;-89
2021/03/29 06:08:48;;;;;;;18.08;9.68;;;;;;;11.28;65.29;102254.88;5014211;28;20053;-79
2021/03/29 06:11:52;;;;;;;14.80;9.20;;;;;;;11.42;65.34;102250.38;5013372;28;20067;-80
2021/03/29 06:15:01;;;;;;;16.15;8.95;;;;;;;11.60;64.52;102253.78;5005316;28;20495;-84
2021/03/29 06:18:17;;;;;;;10.93;9.10;;;;;;;12.15;63.32;102259.25;4994290;28;20054;-84
2021/03/29 06:21:21;;;;;;;10.65;8.73;;;;;;;12.34;62.36;102259.81;4994339;28;20065;-83
2021/03/29 06:24:25;;;;;;;15.15;9.05;;;;;;;12.42;62.00;102253.94;4993556;28;20049;-88
2021/03/29 06:27:36;;;;;;;14.05;9.05;;;;;;;12.57;62.21;102260.97;4994421;28;20057;-83
2021/03/29 06:30:40;;;;;;;11.65;8.15;;;;;;;12.67;61.78;102259.41;5004867;28;20057;-78
2021/03/29 06:33:46;;;;;;;21.15;8.27;;;;;;;12.90;61.69;102258.75;5012742;28;20068;-76
2021/03/29 06:36:51;;;;;;;14.50;8.32;;;;;;;13.28;59.74;102265.13;5011065;28;20064;-75
2021/03/29 06:40:07;;;;;;;12.57;8.73;;;;;;;13.73;58.63;102257.50;5013624;28;20049;-85
2021/03/29 06:43:21;;;;;;;17.25;8.45;;;;;;;14.05;57.63;102256.03;5013273;28;20056;-71
2021/03/29 06:46:28;;;;;;;20.02;8.85;;;;;;;14.14;57.58;102256.28;5013401;28;20057;-73
2021/03/29 06:49:44;;;;;;;16.38;8.40;;;;;;;14.22;57.64;102253.84;5013516;28;20057;-73
2021/03/29 06:52:49;;;;;;;19.50;8.85;;;;;;;14.39;57.48;102255.38;5013527;28;20511;-73
2021/03/29 06:55:57;;;;;;;17.15;9.20;;;;;;;14.24;58.01;102261.88;5001449;28;20053;-73
2021/03/29 06:59:04;;;;;;;24.25;9.15;;;;;;;14.39;58.13;102262.63;5012968;28;20168;-73
2021/03/29 07:02:08;;;;;;;23.10;9.40;;;;;;;14.63;57.39;102264.38;5013492;28;20090;-74
2021/03/29 07:05:14;;;;;;;19.00;8.75;;;;;;;14.84;56.61;102262.75;5013441;28;20053;-78
2021/03/29 07:08:23;;;;;;;17.63;8.48;;;;;;;15.07;56.56;102273.66;5013648;28;20049;-76
2021/03/29 07:11:27;;;;;;;22.10;8.90;;;;;;;15.12;56.65;102280.47;5013329;28;20488;-73
2021/03/29 07:14:32;;;;;;;19.95;9.02;;;;;;;15.32;56.15;102273.50;5013418;28;20393;-74
2021/03/29 07:17:39;;;;;;;16.80;9.32;;;;;;;15.72;55.64;102279.44;5012574;28;20057;-73
2021/03/29 07:20:45;;;;;;;25.45;8.88;;;;;;;15.93;55.04;102278.59;5016309;28;20053;-73
2021/03/29 07:23:51;;;;;;;20.83;9.27;;;;;;;17.04;52.60;102277.56;5017100;28;20512;-73
2021/03/29 07:26:59;;;;;;;19.33;9.65;;;;;;;18.48;48.87;102272.06;5017064;28;20390;-79
2021/03/29 07:30:05;;;;;;;17.17;8.98;;;;;;;21.45;41.67;102264.78;5016982;28;20053;-74
2021/03/29 07:33:10;;;;;;;14.40;8.32;;;;;;;24.73;35.05;102269.22;5004905;28;20064;-74
2021/03/29 07:36:52;;;;;;;20.75;7.78;;;;;;;29.57;27.59;102256.97;5016851;28;20053;-72
2021/03/29 07:40:03;;;;;;;18.60;7.75;;;;;;;31.74;24.60;102262.44;5016853;28;20480;-73
2021/03/29 07:43:17;;;;;;;19.90;7.65;;;;;;;32.97;23.43;102250.09;5016976;28;20160;-74
2021/03/29 07:46:36;;;;;;;14.77;6.65;;;;;;;34.71;21.38;102253.00;5016318;28;20049;-74
2021/03/29 07:49:47;;;;;;;11.45;7.10;;;;;;;37.31;19.49;102248.81;5012159;28;20397;-75
2021/03/29 07:52:57;;;;;;;13.77;8.13;;;;;;;38.64;17.45;102255.06;5015131;28;20041;-75
2021/03/29 07:56:02;;;;;;;11.68;7.82;;;;;;;39.87;16.85;102251.03;5015254;28;20057;-75
2021/03/29 07:59:07;;;;;;;11.95;7.53;;;;;;;39.88;16.98;102255.50;5014753;28;20053;-75
2021/03/29 08:02:31;;;;;;;13.40;7.63;;;;;;;41.78;15.88;102251.94;5015971;28;20057;-75
2021/03/29 08:05:47;;;;;;;16.38;7.30;;;;;;;42.23;15.82;102247.81;5016083;28;20049;-75
2021/03/29 08:08:54;;;;;;;13.65;6.85;;;;;;;42.75;15.35;102259.00;5015423;28;20508;-75
2021/03/29 08:12:02;;;;;;;19.23;7.95;;;;;;;43.80;14.22;102252.78;5015963;28;20057;-75
2021/03/29 08:15:07;;;;;;;13.80;8.93;;;;;;;43.78;14.47;102257.06;5016058;28;20073;-75
2021/03/29 08:18:11;;;;;;;14.70;8.45;;;;;;;44.43;14.79;102255.78;5015440;28;20053;-74
2021/03/29 08:21:53;;;;;;;10.32;7.30;;;;;;;43.29;14.86;102261.28;5012161;28;20041;-75
2021/03/29 08:24:57;;;;;;;14.43;6.93;;;;;;;44.87;14.51;102266.44;5014554;28;20072;-76
2021/03/29 08:28:02;;;;;;;15.35;7.05;;;;;;;44.49;14.48;102257.34;5015251;28;20053;-76
2021/03/29 08:31:06;;;;;;;12.55;6.97;;;;;;;43.64;15.03;102270.34;5015112;28;20049;-76
2021/03/29 08:34:11;;;;;;;11.30;6.70;;;;;;;44.60;14.34;102272.16;5015547;28;20512;-76
2021/03/29 08:37:21;;;;;;;12.13;7.03;;;;;;;45.82;13.56;102268.06;5014984;28;20045;-78
2021/03/29 08:40:32;;;;;;;9.40;7.27;;;;;;;44.48;14.24;102277.53;5015098;28;20053;-81
2021/03/29 08:43:42;;;;;;;10.27;6.00;;;;;;;45.09;12.72;102275.00;5015431;28;20408;-88
2021/03/29 08:46:48;;;;;;;12.20;5.73;;;;;;;46.03;13.20;102274.00;5014029;28;20116;-77
2021/03/29 08:50:07;;;;;;;9.38;5.80;;;;;;;45.75;12.52;102273.38;5014882;28;20495;-87
2021/03/29 08:53:14;;;;;;;7.15;5.18;;;;;;;45.95;12.67;102269.97;5015726;28;20045;-76
2021/03/29 08:56:18;;;;;;;11.15;6.25;;;;;;;45.12;13.24;102276.34;5014869;28;20045;-76
2021/03/29 08:59:29;;;;;;;9.77;5.78;;;;;;;43.62;14.11;102272.63;5014613;28;20073;-75
2021/03/29 09:02:33;;;;;;;9.82;6.60;;;;;;;41.05;15.86;102279.31;5014872;28;20048;-85
2021/03/29 09:05:38;;;;;;;14.27;6.47;;;;;;;40.13;16.53;102275.19;5014995;28;20053;-77
2021/03/29 09:08:42;;;;;;;11.25;6.88;;;;;;;39.94;16.47;102274.06;5013588;28;20066;-83
2021/03/29 09:11:49;;;;;;;8.50;5.82;;;;;;;40.15;16.04;102270.09;5014081;28;20056;-83
2021/03/29 09:14:53;;;;;;;12.80;5.90;;;;;;;36.25;18.59;102277.50;5014424;28;20053;-77
2021/03/29 09:18:02;;;;;;;9.75;6.10;;;;;;;33.49;21.48;102282.72;5014876;28;20057;-81
2021/03/29 09:21:06;;;;;;;11.32;5.75;;;;;;;29.72;25.69;102287.22;5014520;28;20048;-76
2021/03/29 09:24:15;;;;;;;12.43;7.00;;;;;;;27.60;29.20;102283.69;5014313;28;20049;-76
2021/03/29 09:27:24;;;;;;;31.13;9.30;;;;;;;27.15;29.47;102283.25;5014537;28;20046;-75
2021/03/29 09:30:29;;;;;;;12.75;7.85;;;;;;;26.26;31.64;102288.06;5013240;28;20052;-74
2021/03/29 09:33:34;;;;;;;13.43;7.13;;;;;;;25.57;32.22;102281.03;5014387;28;20053;-76
2021/03/29 09:36:38;;;;;;;15.15;7.60;;;;;;;25.27;32.00;102289.31;5015590;28;20053;-75
2021/03/29 09:39:42;;;;;;;13.63;7.35;;;;;;;25.12;32.86;102275.50;5013336;28;20068;-78
2021/03/29 09:42:49;;;;;;;11.13;7.47;;;;;;;25.45;32.50;102281.66;5013377;28;20053;-84
2021/03/29 09:46:04;;;;;;;13.45;8.88;;;;;;;25.03;33.08;102279.38;5014082;28;20500;-86
2021/03/29 09:49:14;;;;;;;14.75;9.43;;;;;;;24.76;33.48;102275.22;5013590;28;20049;-84
2021/03/29 09:52:19;;;;;;;12.10;8.48;;;;;;;24.75;34.37;102273.50;5013340;28;20156;-84
2021/03/29 09:56:00;;;;;;;13.98;8.80;;;;;;;24.45;34.92;102274.31;5019437;28;20619;-75
2021/03/29 09:59:05;;;;;;;20.67;9.77;;;;;;;23.43;35.67;102270.63;5021072;28;20045;-74
2021/03/29 10:02:24;;;;;;;25.27;10.07;;;;;;;23.56;35.91;102271.78;5033499;28;20052;-75
2021/03/29 10:05:36;;;;;;;15.23;9.30;;;;;;;23.66;35.84;102263.38;5033623;28;20045;-84
2021/03/29 10:08:40;;;;;;;12.98;8.98;;;;;;;23.79;36.24;102264.56;5033212;28;20052;-78
2021/03/29 10:11:47;;;;;;;13.32;8.50;;;;;;;24.07;35.64;102256.81;5021723;28;20396;-80
2021/03/29 10:15:07;;;;;;;15.50;10.13;;;;;;;23.87;36.33;102253.56;5018760;28;20429;-77
2021/03/29 10:18:15;;;;;;;22.35;11.20;;;;;;;23.19;36.93;102250.34;5009618;28;20068;-76
2021/03/29 10:21:19;;;;;;;21.33;11.05;;;;;;;22.70;38.62;102248.56;5014025;28;20042;-79
2021/03/29 10:24:24;;;;;;;13.75;10.93;;;;;;;22.65;38.58;102251.81;5012096;28;20046;-78
2021/03/29 10:27:47;;;;;;;18.27;10.88;;;;;;;22.57;38.36;102246.28;5013239;28;20489;-76
2021/03/29 10:30:54;;;;;;;14.15;10.73;;;;;;;22.05;39.04;102244.69;5009377;28;20038;-75
2021/03/29 10:34:00;;;;;;;17.27;11.15;;;;;;;22.18;39.36;102241.50;5010884;28;20050;-83
2021/03/29 10:37:18;;;;;;;15.95;11.70;;;;;;;22.51;38.82;102254.31;5011970;28;20042;-80
2021/03/29 10:40:05;;;;;;;16.98;12.65;;;;;;;22.47;39.20;102250.16;5016455;28;20042;-80
2021/03/29 10:43:10;;;;;;;12.48;9.82;;;;;;;22.59;38.61;102237.91;5011373;28;20034;-76
2021/03/29 10:46:15;;;;;;;20.27;12.45;;;;;;;22.35;39.57;102244.16;5011420;28;20052;-78
2021/03/29 10:49:19;;;;;;;24.92;12.65;;;;;;;21.91;40.19;102248.03;5011615;28;20046;-75
2021/03/29 10:52:24;;;;;;;24.17;12.00;;;;;;;21.72;40.19;102240.91;5011638;28;20405;-75
2021/03/29 10:55:31;;;;;;;20.38;13.07;;;;;;;21.61;40.44;102234.81;5020817;28;20140;-75
2021/03/29 10:58:35;;;;;;;17.13;12.68;;;;;;;21.57;41.05;102233.44;5017736;28;20038;-81
2021/03/29 11:01:40;;;;;;;17.70;11.10;;;;;;;21.87;40.16;102219.31;5012598;28;20642;-78
2021/03/29 11:04:45;;;;;;;17.92;12.70;;;;;;;21.75;40.73;102226.88;5029827;28;20041;-79
2021/03/29 11:07:49;;;;;;;20.67;12.30;;;;;;;21.58;41.36;102232.44;5018115;28;20038;-76
2021/03/29 11:10:53;;;;;;;15.93;12.27;;;;;;;21.55;41.40;102217.22;5013825;28;20041;-84
2021/03/29 11:13:58;;;;;;;15.88;13.07;;;;;;;21.27;40.88;102221.09;5015995;28;20137;-85
2021/03/29 11:17:04;;;;;;;18.65;12.18;;;;;;;21.18;41.38;102216.59;5018097;28;20042;-86
2021/03/29 11:20:08;;;;;;;15.98;12.02;;;;;;;21.59;40.81;102228.66;5018826;28;20037;-83
2021/03/29 11:23:13;;;;;;;15.68;10.65;;;;;;;21.67;40.78;102220.53;5015254;28;20042;-76
2021/03/29 11:26:17;;;;;;;19.80;11.77;;;;;;;21.61;40.97;102216.56;5026777;28;20476;-74
2021/03/29 11:29:22;;;;;;;15.18;10.52;;;;;;;21.77;40.73;102213.06;5017955;28;20046;-74
2021/03/29 11:32:26;;;;;;;19.13;11.88;;;;;;;21.67;40.81;102199.53;5014183;28;20050;-75
2021/03/29 11:35:31;;;;;;;15.90;11.57;;;;;;;21.57;41.19;102203.38;5017940;28;20046;-74
2021/03/29 11:38:37;;;;;;;16.98;11.93;;;;;;;21.20;41.74;102201.75;5017799;28;20034;-82
2021/03/29 11:41:42;;;;;;;15.38;10.98;;;;;;;21.29;41.23;102195.34;5013423;28;20046;-81
2021/03/29 11:44:46;;;;;;;19.67;11.20;;;;;;;21.19;41.76;102199.16;5013863;28;20053;-83
2021/03/29 11:47:50;;;;;;;19.80;12.63;;;;;;;21.05;41.97;102195.16;5015802;28;20050;-77
2021/03/29 11:50:54;;;;;;;18.08;11.98;;;;;;;21.25;42.05;102188.47;5017653;28;20045;-75
2021/03/29 11:53:59;;;;;;;23.20;12.70;;;;;;;21.31;41.85;102182.38;5024240;28;20046;-75
2021/03/29 11:57:04;;;;;;;16.50;12.18;;;;;;;21.14;42.05;102182.41;5014903;28;20042;-73
2021/03/29 12:00:16;;;;;;;23.10;13.32;;;;;;;21.14;42.29;102169.59;5016261;28;20050;-83
2021/03/29 12:06:36;;;;;;;18.40;12.15;;;;;;;21.26;42.21;102162.00;5011658;28;20125;-76
2021/03/29 12:11:50;;;;;;;12.77;10.77;;;;;;;21.19;41.03;102166.38;5014463;28;20054;-75
2021/03/29 12:13:18;;;;;;;13.35;9.13;;;;;;;21.21;38.97;102164.34;5009620;28;20050;-79
2021/03/29 12:16:25;;;;;;;13.73;8.82;;;;;;;21.07;40.04;102163.06;5014195;28;20508;-74
2021/03/29 12:19:30;;;;;;;15.13;9.93;;;;;;;21.17;40.24;102155.63;5013308;28;20088;-77
2021/03/29 12:22:36;;;;;;;17.83;12.30;;;;;;;21.31;41.68;102160.50;5013942;28;20053;-80
2021/03/29 12:25:47;;;;;;;18.40;11.93;;;;;;;21.13;41.52;102156.13;5024688;28;20054;-74
2021/03/29 12:28:54;;;;;;;18.70;11.73;;;;;;;21.32;41.82;102156.78;5013925;28;20046;-75
2021/03/29 12:31:58;;;;;;;14.38;12.38;;;;;;;21.26;41.59;102146.47;5013867;28;20042;-76
2021/03/29 12:35:04;;;;;;;18.63;13.43;;;;;;;21.08;42.14;102136.63;5014005;28;20042;-77
2021/03/29 12:38:09;;;;;;;16.38;12.23;;;;;;;21.06;42.10;102130.47;5013019;28;20041;-75
2021/03/29 12:41:15;;;;;;;18.17;12.65;;;;;;;21.14;41.85;102136.84;5009808;28;20050;-80
2021/03/29 12:44:20;;;;;;;15.38;11.70;;;;;;;21.04;41.65;102130.56;5012618;28;20050;-78
2021/03/29 12:47:31;;;;;;;17.88;12.75;;;;;;;21.11;42.28;102133.59;5012042;28;20050;-75
2021/03/29 12:50:36;;;;;;;21.98;12.98;;;;;;;21.12;41.86;102127.94;5013660;28;20485;-76
2021/03/29 12:53:42;;;;;;;19.95;13.63;;;;;;;21.08;42.67;102123.84;5024276;28;20046;-77
2021/03/29 12:56:46;;;;;;;21.10;13.10;;;;;;;20.96;42.52;102116.84;5013491;28;20038;-77
2021/03/29 12:59:51;;;;;;;14.98;11.02;;;;;;;21.11;42.54;102104.38;5013382;28;20046;-77
2021/03/29 13:02:59;;;;;;;14.82;11.10;;;;;;;21.32;42.33;102109.47;5013272;28;20393;-82
2021/03/29 13:06:14;;;;;;;19.17;11.68;;;;;;;21.37;41.96;102098.91;5013465;28;20409;-81
2021/03/29 13:12:40;;;;;;;16.00;11.02;;;;;;;21.49;41.61;102097.59;5021814;28;20042;-76
2021/03/29 13:15:45;;;;;;;17.27;10.48;;;;;;;21.48;41.59;102086.84;5015541;28;20405;-74
2021/03/29 13:18:49;;;;;;;14.35;10.70;;;;;;;21.47;40.49;102082.41;5021320;28;20045;-76
2021/03/29 13:21:54;;;;;;;14.20;9.82;;;;;;;21.19;40.35;102085.31;5021177;28;20037;-76
2021/03/29 13:24:58;;;;;;;11.30;10.15;;;;;;;21.16;40.57;102074.69;5019277;28;20052;-73
2021/03/29 13:28:05;;;;;;;20.60;9.93;;;;;;;21.26;41.07;102070.00;5013034;28;20045;-74
2021/03/29 13:31:09;;;;;;;10.82;9.73;;;;;;;21.23;40.13;102064.84;5016713;28;20116;-78
2021/03/29 13:34:13;;;;;;;13.05;9.45;;;;;;;21.12;40.41;102069.72;5012435;28;20339;-75
2021/03/29 13:37:26;;;;;;;15.23;8.48;;;;;;;21.18;40.22;102067.19;5012530;28;20056;-76
2021/03/29 13:40:31;;;;;;;19.10;7.82;;;;;;;21.22;39.01;102059.56;5012444;28;20061;-74
2021/03/29 13:43:38;;;;;;;12.50;8.15;;;;;;;21.21;39.30;102058.69;5012082;28;20389;-81
2021/03/29 13:46:44;;;;;;;11.88;7.35;;;;;;;21.28;38.69;102059.75;5015225;28;20061;-76
2021/03/29 13:49:50;;;;;;;12.63;7.20;;;;;;;21.35;37.97;102046.31;5019486;28;20061;-75
2021/03/29 13:52:54;;;;;;;8.55;6.72;;;;;;;21.46;37.94;102043.28;5021739;28;20041;-80
2021/03/29 13:55:58;;;;;;;10.90;7.65;;;;;;;21.52;37.83;102030.84;5020607;28;20048;-75
2021/03/29 13:59:03;;;;;;;8.60;7.05;;;;;;;21.54;38.29;102034.25;5016277;28;20100;-77
2021/03/29 14:02:09;;;;;;;12.27;7.63;;;;;;;21.60;38.51;102039.06;5012460;28;20053;-78
2021/03/29 14:05:15;;;;;;;15.02;8.00;;;;;;;21.42;38.91;102030.13;5015172;28;20061;-75
2021/03/29 14:08:19;;;;;;;11.45;7.53;;;;;;;21.47;38.85;102030.47;5012362;28;20049;-75
2021/03/29 14:11:24;;;;;;;12.65;7.95;;;;;;;21.42;38.82;102027.38;5008406;28;20061;-73
2021/03/29 14:14:29;;;;;;;10.43;7.22;;;;;;;21.42;39.02;102025.50;5011816;28;20373;-75
2021/03/29 14:17:35;;;;;;;11.70;7.03;;;;;;;21.41;38.38;102026.50;4994174;28;20093;-75
2021/03/29 14:20:39;;;;;;;11.63;7.60;;;;;;;21.47;38.90;102025.00;5010745;28;20413;-83
2021/03/29 14:23:44;;;;;;;12.27;8.48;;;;;;;21.27;38.55;102024.41;5013614;28;20052;-75